sensor_id;sensor_type;location;lat;lon;timestamp;temperature;humidity
9881;DHT22;4979;51.014;6.678;2023-05-14T00:00:48;13.40;99.90
9881;DHT22;4979;51.014;6.678;2023-05-14T00:03:14;13.50;99.90
9881;DHT22;4979;51.014;6.678;2023-05-14T00:05:39;13.40;99.90
9881;DHT22;4979;51.014;6.678;2023-05-14T00:08:05;13.40;99.90
9881;DHT22;4979;51.014;6.678;2023-05-14T00:10:31;13.40;99.90
9881;DHT22;4979;51.014;6.678;2023-05-14T00:12:56;13.40;99.90
9881;DHT22;4979;51.014;6.678;2023-05-14T00:15:22;13.30;99.90
9881;DHT22;4979;51.014;6.678;2023-05-14T00:17:47;13.30;99.90
9881;DHT22;4979;51.014;6.678;2023-05-14T00:20:13;13.40;99.90
9881;DHT22;4979;51.014;6.678;2023-05-14T00:22:39;13.20;99.90
9881;DHT22;4979;51.014;6.678;2023-05-14T00:25:05;13.10;99.90
9881;DHT22;4979;51.014;6.678;2023-05-14T00:27:31;13.00;99.90
9881;DHT22;4979;51.014;6.678;2023-05-14T00:29:57;13.00;99.90
9881;DHT22;4979;51.014;6.678;2023-05-14T00:32:23;12.90;99.90
9881;DHT22;4979;51.014;6.678;2023-05-14T00:34:48;13.00;99.90
9881;DHT22;4979;51.014;6.678;2023-05-14T00:37:14;13.00;99.90
9881;DHT22;4979;51.014;6.678;2023-05-14T00:39:40;13.00;99.90
9881;DHT22;4979;51.014;6.678;2023-05-14T00:42:05;13.00;99.90
9881;DHT22;4979;51.014;6.678;2023-05-14T00:44:31;12.90;99.90
9881;DHT22;4979;51.014;6.678;2023-05-14T00:46:58;12.90;99.90
9881;DHT22;4979;51.014;6.678;2023-05-14T00:49:24;12.90;99.90
9881;DHT22;4979;51.014;6.678;2023-05-14T00:51:50;12.90;99.90
9881;DHT22;4979;51.014;6.678;2023-05-14T00:54:17;12.80;99.90
9881;DHT22;4979;51.014;6.678;2023-05-14T00:56:46;12.80;99.90
9881;DHT22;4979;51.014;6.678;2023-05-14T00:59:13;12.80;99.90
9881;DHT22;4979;51.014;6.678;2023-05-14T01:01:38;12.80;99.90
9881;DHT22;4979;51.014;6.678;2023-05-14T01:04:05;13.00;99.90
9881;DHT22;4979;51.014;6.678;2023-05-14T01:06:46;12.80;99.90
9881;DHT22;4979;51.014;6.678;2023-05-14T01:17:27;12.90;99.90
9881;DHT22;4979;51.014;6.678;2023-05-14T01:19:54;12.80;99.90
9881;DHT22;4979;51.014;6.678;2023-05-14T01:22:20;12.90;99.90
9881;DHT22;4979;51.014;6.678;2023-05-14T01:24:46;12.90;99.90
9881;DHT22;4979;51.014;6.678;2023-05-14T01:32:40;12.80;99.90
9881;DHT22;4979;51.014;6.678;2023-05-14T01:35:08;13.00;99.90
9881;DHT22;4979;51.014;6.678;2023-05-14T01:37:35;12.90;99.90
9881;DHT22;4979;51.014;6.678;2023-05-14T01:40:03;12.90;99.90
9881;DHT22;4979;51.014;6.678;2023-05-14T01:42:29;12.80;99.90
9881;DHT22;4979;51.014;6.678;2023-05-14T01:44:55;12.80;99.90
9881;DHT22;4979;51.014;6.678;2023-05-14T01:47:21;12.80;99.90
9881;DHT22;4979;51.014;6.678;2023-05-14T01:52:12;12.70;99.90
9881;DHT22;4979;51.014;6.678;2023-05-14T01:54:38;12.60;99.90
9881;DHT22;4979;51.014;6.678;2023-05-14T01:57:04;12.50;99.90
9881;DHT22;4979;51.014;6.678;2023-05-14T01:59:29;12.40;99.90
9881;DHT22;4979;51.014;6.678;2023-05-14T02:01:55;12.50;99.90
9881;DHT22;4979;51.014;6.678;2023-05-14T02:04:20;12.40;99.90
9881;DHT22;4979;51.014;6.678;2023-05-14T02:06:46;12.50;99.90
9881;DHT22;4979;51.014;6.678;2023-05-14T02:09:12;12.50;99.90
9881;DHT22;4979;51.014;6.678;2023-05-14T02:11:37;12.40;99.90
9881;DHT22;4979;51.014;6.678;2023-05-14T02:14:03;12.40;99.90
9881;DHT22;4979;51.014;6.678;2023-05-14T02:16:28;12.40;99.90
9881;DHT22;4979;51.014;6.678;2023-05-14T02:18:54;12.30;99.90
9881;DHT22;4979;51.014;6.678;2023-05-14T02:21:19;12.30;99.90
9881;DHT22;4979;51.014;6.678;2023-05-14T02:23:45;12.30;99.90
9881;DHT22;4979;51.014;6.678;2023-05-14T02:26:12;12.20;99.90
9881;DHT22;4979;51.014;6.678;2023-05-14T02:28:38;12.20;99.90
9881;DHT22;4979;51.014;6.678;2023-05-14T02:31:04;12.30;99.90
9881;DHT22;4979;51.014;6.678;2023-05-14T02:33:29;12.20;99.90
9881;DHT22;4979;51.014;6.678;2023-05-14T02:35:55;12.20;99.90
9881;DHT22;4979;51.014;6.678;2023-05-14T02:38:21;12.10;99.90
9881;DHT22;4979;51.014;6.678;2023-05-14T02:43:12;12.00;99.90
9881;DHT22;4979;51.014;6.678;2023-05-14T02:45:38;12.10;99.90
9881;DHT22;4979;51.014;6.678;2023-05-14T02:48:03;12.20;99.90
9881;DHT22;4979;51.014;6.678;2023-05-14T02:50:29;12.10;99.90
9881;DHT22;4979;51.014;6.678;2023-05-14T02:52:54;12.10;99.90
9881;DHT22;4979;51.014;6.678;2023-05-14T02:55:20;12.10;99.90
9881;DHT22;4979;51.014;6.678;2023-05-14T02:57:46;12.10;99.90
9881;DHT22;4979;51.014;6.678;2023-05-14T03:00:12;12.10;99.90
9881;DHT22;4979;51.014;6.678;2023-05-14T03:02:37;12.00;99.90
9881;DHT22;4979;51.014;6.678;2023-05-14T03:05:03;12.00;99.90
9881;DHT22;4979;51.014;6.678;2023-05-14T03:07:29;12.00;99.90
9881;DHT22;4979;51.014;6.678;2023-05-14T03:09:54;11.90;99.90
9881;DHT22;4979;51.014;6.678;2023-05-14T03:12:20;11.90;99.90
9881;DHT22;4979;51.014;6.678;2023-05-14T03:17:12;11.90;99.90
9881;DHT22;4979;51.014;6.678;2023-05-14T03:19:37;11.90;99.90
9881;DHT22;4979;51.014;6.678;2023-05-14T03:22:03;11.90;99.90
9881;DHT22;4979;51.014;6.678;2023-05-14T03:24:29;11.80;99.90
9881;DHT22;4979;51.014;6.678;2023-05-14T03:26:55;11.80;99.90
9881;DHT22;4979;51.014;6.678;2023-05-14T03:29:21;11.70;99.90
9881;DHT22;4979;51.014;6.678;2023-05-14T03:36:39;11.60;99.90
9881;DHT22;4979;51.014;6.678;2023-05-14T03:39:04;11.60;99.90
9881;DHT22;4979;51.014;6.678;2023-05-14T03:41:34;11.70;99.90
9881;DHT22;4979;51.014;6.678;2023-05-14T03:44:00;11.70;99.90
9881;DHT22;4979;51.014;6.678;2023-05-14T03:46:25;11.70;99.90
9881;DHT22;4979;51.014;6.678;2023-05-14T03:48:51;11.60;99.90
9881;DHT22;4979;51.014;6.678;2023-05-14T03:51:17;11.60;99.90
9881;DHT22;4979;51.014;6.678;2023-05-14T03:53:42;11.60;99.90
9881;DHT22;4979;51.014;6.678;2023-05-14T03:56:08;11.70;99.90
9881;DHT22;4979;51.014;6.678;2023-05-14T03:58:33;11.70;99.90
9881;DHT22;4979;51.014;6.678;2023-05-14T04:00:59;11.70;99.90
9881;DHT22;4979;51.014;6.678;2023-05-14T04:03:25;11.80;99.90
9881;DHT22;4979;51.014;6.678;2023-05-14T04:05:50;11.70;99.90
9881;DHT22;4979;51.014;6.678;2023-05-14T04:10:42;11.60;99.90
9881;DHT22;4979;51.014;6.678;2023-05-14T04:13:07;11.60;99.90
9881;DHT22;4979;51.014;6.678;2023-05-14T04:15:33;11.60;99.90
9881;DHT22;4979;51.014;6.678;2023-05-14T04:18:00;11.70;99.90
9881;DHT22;4979;51.014;6.678;2023-05-14T04:20:26;11.70;99.90
9881;DHT22;4979;51.014;6.678;2023-05-14T04:22:52;11.60;99.90
9881;DHT22;4979;51.014;6.678;2023-05-14T04:25:18;11.70;99.90
9881;DHT22;4979;51.014;6.678;2023-05-14T04:27:44;11.70;99.90
9881;DHT22;4979;51.014;6.678;2023-05-14T04:30:10;11.60;99.90
9881;DHT22;4979;51.014;6.678;2023-05-14T04:32:35;11.60;99.90
9881;DHT22;4979;51.014;6.678;2023-05-14T04:35:01;11.70;99.90
9881;DHT22;4979;51.014;6.678;2023-05-14T04:37:27;11.70;99.90
9881;DHT22;4979;51.014;6.678;2023-05-14T04:39:52;11.70;99.90
9881;DHT22;4979;51.014;6.678;2023-05-14T04:42:18;11.70;99.90
9881;DHT22;4979;51.014;6.678;2023-05-14T04:44:43;11.70;99.90
9881;DHT22;4979;51.014;6.678;2023-05-14T04:47:09;11.60;99.90
9881;DHT22;4979;51.014;6.678;2023-05-14T04:49:34;11.50;99.90
9881;DHT22;4979;51.014;6.678;2023-05-14T04:52:00;11.60;99.90
9881;DHT22;4979;51.014;6.678;2023-05-14T04:56:52;11.90;99.90
9881;DHT22;4979;51.014;6.678;2023-05-14T04:59:20;11.90;99.90
9881;DHT22;4979;51.014;6.678;2023-05-14T05:04:11;12.00;99.90
9881;DHT22;4979;51.014;6.678;2023-05-14T05:06:37;12.50;99.90
9881;DHT22;4979;51.014;6.678;2023-05-14T05:09:03;12.60;99.90
9881;DHT22;4979;51.014;6.678;2023-05-14T05:11:28;12.70;99.90
9881;DHT22;4979;51.014;6.678;2023-05-14T05:13:54;13.00;99.90
9881;DHT22;4979;51.014;6.678;2023-05-14T05:16:20;13.00;99.90
9881;DHT22;4979;51.014;6.678;2023-05-14T05:21:11;12.90;99.90
9881;DHT22;4979;51.014;6.678;2023-05-14T05:23:37;13.00;99.90
9881;DHT22;4979;51.014;6.678;2023-05-14T05:26:02;13.30;99.90
9881;DHT22;4979;51.014;6.678;2023-05-14T05:28:28;13.40;99.90
9881;DHT22;4979;51.014;6.678;2023-05-14T05:30:53;13.50;99.90
9881;DHT22;4979;51.014;6.678;2023-05-14T05:33:19;13.40;99.90
9881;DHT22;4979;51.014;6.678;2023-05-14T05:35:45;13.40;99.90
9881;DHT22;4979;51.014;6.678;2023-05-14T05:38:10;13.10;99.90
9881;DHT22;4979;51.014;6.678;2023-05-14T05:40:36;13.00;99.90
9881;DHT22;4979;51.014;6.678;2023-05-14T05:43:01;13.00;99.90
9881;DHT22;4979;51.014;6.678;2023-05-14T05:45:27;13.00;99.90
9881;DHT22;4979;51.014;6.678;2023-05-14T05:47:52;13.00;99.90
9881;DHT22;4979;51.014;6.678;2023-05-14T05:50:18;13.00;99.90
9881;DHT22;4979;51.014;6.678;2023-05-14T05:52:44;13.00;99.90
9881;DHT22;4979;51.014;6.678;2023-05-14T05:55:09;13.00;99.90
9881;DHT22;4979;51.014;6.678;2023-05-14T05:57:35;13.10;99.90
9881;DHT22;4979;51.014;6.678;2023-05-14T06:00:01;13.20;99.90
9881;DHT22;4979;51.014;6.678;2023-05-14T06:02:36;13.20;99.90
9881;DHT22;4979;51.014;6.678;2023-05-14T06:05:02;13.40;99.90
9881;DHT22;4979;51.014;6.678;2023-05-14T06:07:28;13.60;99.90
9881;DHT22;4979;51.014;6.678;2023-05-14T06:09:53;13.60;99.90
9881;DHT22;4979;51.014;6.678;2023-05-14T06:12:19;13.80;99.90
9881;DHT22;4979;51.014;6.678;2023-05-14T06:14:46;13.80;99.90
9881;DHT22;4979;51.014;6.678;2023-05-14T06:17:11;13.80;99.90
9881;DHT22;4979;51.014;6.678;2023-05-14T06:19:37;13.90;99.90
9881;DHT22;4979;51.014;6.678;2023-05-14T06:22:02;13.90;99.90
9881;DHT22;4979;51.014;6.678;2023-05-14T06:24:28;13.90;99.90
9881;DHT22;4979;51.014;6.678;2023-05-14T06:26:53;14.10;99.90
9881;DHT22;4979;51.014;6.678;2023-05-14T06:29:19;14.10;99.90
9881;DHT22;4979;51.014;6.678;2023-05-14T06:34:11;14.10;99.90
9881;DHT22;4979;51.014;6.678;2023-05-14T06:36:36;14.20;99.90
9881;DHT22;4979;51.014;6.678;2023-05-14T06:39:02;14.30;99.90
9881;DHT22;4979;51.014;6.678;2023-05-14T06:41:27;14.40;99.90
9881;DHT22;4979;51.014;6.678;2023-05-14T06:46:20;14.90;99.90
9881;DHT22;4979;51.014;6.678;2023-05-14T06:48:45;15.00;99.90
9881;DHT22;4979;51.014;6.678;2023-05-14T06:51:11;15.10;99.90
9881;DHT22;4979;51.014;6.678;2023-05-14T06:53:38;15.10;99.90
9881;DHT22;4979;51.014;6.678;2023-05-14T06:56:04;15.30;99.90
9881;DHT22;4979;51.014;6.678;2023-05-14T06:58:29;15.20;99.90
9881;DHT22;4979;51.014;6.678;2023-05-14T07:00:55;15.30;99.90
9881;DHT22;4979;51.014;6.678;2023-05-14T07:03:20;15.40;99.90
9881;DHT22;4979;51.014;6.678;2023-05-14T07:05:46;15.40;99.90
9881;DHT22;4979;51.014;6.678;2023-05-14T07:08:12;15.50;99.90
9881;DHT22;4979;51.014;6.678;2023-05-14T07:10:38;15.70;99.90
9881;DHT22;4979;51.014;6.678;2023-05-14T07:15:30;16.10;99.90
9881;DHT22;4979;51.014;6.678;2023-05-14T07:17:55;15.90;99.90
9881;DHT22;4979;51.014;6.678;2023-05-14T07:25:14;16.00;99.90
9881;DHT22;4979;51.014;6.678;2023-05-14T07:30:06;16.30;99.90
9881;DHT22;4979;51.014;6.678;2023-05-14T07:32:32;16.60;99.90
9881;DHT22;4979;51.014;6.678;2023-05-14T07:34:58;16.50;99.90
9881;DHT22;4979;51.014;6.678;2023-05-14T07:44:42;16.90;99.90
9881;DHT22;4979;51.014;6.678;2023-05-14T07:47:08;16.90;99.90
9881;DHT22;4979;51.014;6.678;2023-05-14T07:49:35;16.90;99.90
9881;DHT22;4979;51.014;6.678;2023-05-14T07:59:18;17.40;99.90
9881;DHT22;4979;51.014;6.678;2023-05-14T08:04:10;17.40;99.90
9881;DHT22;4979;51.014;6.678;2023-05-14T08:06:40;17.50;99.90
9881;DHT22;4979;51.014;6.678;2023-05-14T08:11:33;17.70;99.90
9881;DHT22;4979;51.014;6.678;2023-05-14T08:13:58;17.90;99.90
9881;DHT22;4979;51.014;6.678;2023-05-14T08:18:50;17.90;99.90
9881;DHT22;4979;51.014;6.678;2023-05-14T08:21:16;17.90;99.90
9881;DHT22;4979;51.014;6.678;2023-05-14T08:23:42;18.10;99.90
9881;DHT22;4979;51.014;6.678;2023-05-14T08:26:07;18.30;99.90
9881;DHT22;4979;51.014;6.678;2023-05-14T08:28:33;18.20;99.90
9881;DHT22;4979;51.014;6.678;2023-05-14T08:30:58;18.20;99.90
9881;DHT22;4979;51.014;6.678;2023-05-14T08:33:24;18.30;99.90
9881;DHT22;4979;51.014;6.678;2023-05-14T08:35:52;18.60;99.90
9881;DHT22;4979;51.014;6.678;2023-05-14T08:38:17;18.70;99.90
9881;DHT22;4979;51.014;6.678;2023-05-14T08:40:56;18.50;99.90
9881;DHT22;4979;51.014;6.678;2023-05-14T08:43:26;18.50;99.90
9881;DHT22;4979;51.014;6.678;2023-05-14T08:45:57;18.50;99.90
9881;DHT22;4979;51.014;6.678;2023-05-14T08:48:29;18.60;99.90
9881;DHT22;4979;51.014;6.678;2023-05-14T08:50:56;18.70;99.90
9881;DHT22;4979;51.014;6.678;2023-05-14T08:55:50;18.90;99.90
9881;DHT22;4979;51.014;6.678;2023-05-14T09:00:42;19.10;99.90
9881;DHT22;4979;51.014;6.678;2023-05-14T09:03:07;19.20;99.90
9881;DHT22;4979;51.014;6.678;2023-05-14T09:10:25;19.20;99.90
9881;DHT22;4979;51.014;6.678;2023-05-14T09:15:17;19.30;99.90
9881;DHT22;4979;51.014;6.678;2023-05-14T09:17:43;19.20;99.90
9881;DHT22;4979;51.014;6.678;2023-05-14T09:20:12;19.30;99.90
9881;DHT22;4979;51.014;6.678;2023-05-14T09:25:07;19.30;99.90
9881;DHT22;4979;51.014;6.678;2023-05-14T09:27:34;19.50;99.90
9881;DHT22;4979;51.014;6.678;2023-05-14T09:30:10;19.60;99.90
9881;DHT22;4979;51.014;6.678;2023-05-14T09:32:38;19.70;99.90
9881;DHT22;4979;51.014;6.678;2023-05-14T09:35:29;19.90;99.90
9881;DHT22;4979;51.014;6.678;2023-05-14T09:40:23;20.10;99.90
9881;DHT22;4979;51.014;6.678;2023-05-14T09:42:48;20.30;99.90
9881;DHT22;4979;51.014;6.678;2023-05-14T09:45:15;20.20;99.90
9881;DHT22;4979;51.014;6.678;2023-05-14T09:50:07;20.20;99.90
9881;DHT22;4979;51.014;6.678;2023-05-14T09:52:34;20.30;99.90
9881;DHT22;4979;51.014;6.678;2023-05-14T09:57:26;20.40;99.90
9881;DHT22;4979;51.014;6.678;2023-05-14T09:59:52;20.60;99.90
9881;DHT22;4979;51.014;6.678;2023-05-14T10:04:56;20.60;99.90
9881;DHT22;4979;51.014;6.678;2023-05-14T10:07:55;20.90;99.90
9881;DHT22;4979;51.014;6.678;2023-05-14T10:10:25;20.90;99.90
9881;DHT22;4979;51.014;6.678;2023-05-14T10:12:56;21.00;99.90
9881;DHT22;4979;51.014;6.678;2023-05-14T10:15:56;21.30;99.90
9881;DHT22;4979;51.014;6.678;2023-05-14T10:21:04;21.30;99.90
9881;DHT22;4979;51.014;6.678;2023-05-14T10:28:26;21.10;99.90
9881;DHT22;4979;51.014;6.678;2023-05-14T10:30:53;21.50;99.90
9881;DHT22;4979;51.014;6.678;2023-05-14T10:33:18;21.90;99.90
9881;DHT22;4979;51.014;6.678;2023-05-14T10:36:04;21.70;99.90
9881;DHT22;4979;51.014;6.678;2023-05-14T10:38:39;21.70;99.90
9881;DHT22;4979;51.014;6.678;2023-05-14T10:41:09;21.70;99.90
9881;DHT22;4979;51.014;6.678;2023-05-14T10:43:39;21.60;99.90
9881;DHT22;4979;51.014;6.678;2023-05-14T10:46:06;21.70;99.90
9881;DHT22;4979;51.014;6.678;2023-05-14T10:55:57;21.90;99.90
9881;DHT22;4979;51.014;6.678;2023-05-14T11:00:53;21.50;99.90
9881;DHT22;4979;51.014;6.678;2023-05-14T11:08:12;21.30;99.90
9881;DHT22;4979;51.014;6.678;2023-05-14T11:13:05;21.40;99.90
9881;DHT22;4979;51.014;6.678;2023-05-14T11:15:30;21.60;99.90
9881;DHT22;4979;51.014;6.678;2023-05-14T11:25:24;22.70;99.90
9881;DHT22;4979;51.014;6.678;2023-05-14T11:27:50;23.00;99.90
9881;DHT22;4979;51.014;6.678;2023-05-14T11:30:18;22.80;99.90
9881;DHT22;4979;51.014;6.678;2023-05-14T11:35:12;23.40;99.90
9881;DHT22;4979;51.014;6.678;2023-05-14T11:37:38;23.00;99.90
9881;DHT22;4979;51.014;6.678;2023-05-14T11:40:07;22.70;99.90
9881;DHT22;4979;51.014;6.678;2023-05-14T11:42:35;23.00;99.90
9881;DHT22;4979;51.014;6.678;2023-05-14T11:47:29;23.10;99.90
9881;DHT22;4979;51.014;6.678;2023-05-14T11:52:22;23.30;98.70
9881;DHT22;4979;51.014;6.678;2023-05-14T11:54:49;23.20;98.70
9881;DHT22;4979;51.014;6.678;2023-05-14T11:57:17;23.50;99.60
9881;DHT22;4979;51.014;6.678;2023-05-14T11:59:44;23.70;95.60
9881;DHT22;4979;51.014;6.678;2023-05-14T12:02:17;23.80;98.50
9881;DHT22;4979;51.014;6.678;2023-05-14T12:04:44;24.00;94.80
9881;DHT22;4979;51.014;6.678;2023-05-14T12:07:15;24.20;96.30
9881;DHT22;4979;51.014;6.678;2023-05-14T12:09:49;23.40;95.30
9881;DHT22;4979;51.014;6.678;2023-05-14T12:12:18;23.00;97.60
9881;DHT22;4979;51.014;6.678;2023-05-14T12:14:46;23.40;98.20
9881;DHT22;4979;51.014;6.678;2023-05-14T12:17:20;23.70;98.30
9881;DHT22;4979;51.014;6.678;2023-05-14T12:19:52;23.90;96.90
9881;DHT22;4979;51.014;6.678;2023-05-14T12:22:20;23.70;94.90
9881;DHT22;4979;51.014;6.678;2023-05-14T12:24:57;24.00;95.90
9881;DHT22;4979;51.014;6.678;2023-05-14T12:27:24;24.10;92.80
9881;DHT22;4979;51.014;6.678;2023-05-14T12:30:00;24.20;91.50
9881;DHT22;4979;51.014;6.678;2023-05-14T12:32:30;24.00;90.90
9881;DHT22;4979;51.014;6.678;2023-05-14T12:34:56;23.90;91.30
9881;DHT22;4979;51.014;6.678;2023-05-14T12:37:22;24.10;90.50
9881;DHT22;4979;51.014;6.678;2023-05-14T12:42:14;24.10;89.90
9881;DHT22;4979;51.014;6.678;2023-05-14T12:44:40;24.20;91.80
9881;DHT22;4979;51.014;6.678;2023-05-14T12:47:06;23.70;94.50
9881;DHT22;4979;51.014;6.678;2023-05-14T12:51:57;23.50;93.90
9881;DHT22;4979;51.014;6.678;2023-05-14T12:59:15;23.20;92.60
9881;DHT22;4979;51.014;6.678;2023-05-14T13:01:41;23.10;91.40
9881;DHT22;4979;51.014;6.678;2023-05-14T13:04:08;23.10;91.60
9881;DHT22;4979;51.014;6.678;2023-05-14T13:09:02;23.20;93.50
9881;DHT22;4979;51.014;6.678;2023-05-14T13:11:28;23.10;92.60
9881;DHT22;4979;51.014;6.678;2023-05-14T13:13:56;23.40;94.10
9881;DHT22;4979;51.014;6.678;2023-05-14T13:18:48;23.70;93.20
9881;DHT22;4979;51.014;6.678;2023-05-14T13:31:09;23.80;91.30
9881;DHT22;4979;51.014;6.678;2023-05-14T13:33:37;23.70;89.00
9881;DHT22;4979;51.014;6.678;2023-05-14T13:38:29;24.00;88.30
9881;DHT22;4979;51.014;6.678;2023-05-14T13:40:54;23.90;87.20
9881;DHT22;4979;51.014;6.678;2023-05-14T13:43:22;23.90;86.70
9881;DHT22;4979;51.014;6.678;2023-05-14T13:53:06;24.10;83.90
9881;DHT22;4979;51.014;6.678;2023-05-14T13:55:32;24.40;85.50
9881;DHT22;4979;51.014;6.678;2023-05-14T14:00:23;24.10;81.50
9881;DHT22;4979;51.014;6.678;2023-05-14T14:02:49;24.10;80.80
9881;DHT22;4979;51.014;6.678;2023-05-14T14:05:15;24.30;82.60
9881;DHT22;4979;51.014;6.678;2023-05-14T14:07:40;24.50;82.60
9881;DHT22;4979;51.014;6.678;2023-05-14T14:17:25;24.10;82.00
9881;DHT22;4979;51.014;6.678;2023-05-14T14:22:16;24.40;80.50
9881;DHT22;4979;51.014;6.678;2023-05-14T14:24:42;24.30;78.20
9881;DHT22;4979;51.014;6.678;2023-05-14T14:34:26;24.40;73.60
9881;DHT22;4979;51.014;6.678;2023-05-14T14:36:52;24.00;77.50
9881;DHT22;4979;51.014;6.678;2023-05-14T14:39:18;23.80;80.20
9881;DHT22;4979;51.014;6.678;2023-05-14T14:41:43;23.50;79.40
9881;DHT22;4979;51.014;6.678;2023-05-14T14:49:00;23.70;79.90
9881;DHT22;4979;51.014;6.678;2023-05-14T14:56:18;24.00;79.20
9881;DHT22;4979;51.014;6.678;2023-05-14T15:01:10;23.90;81.10
9881;DHT22;4979;51.014;6.678;2023-05-14T15:03:36;23.90;79.70
9881;DHT22;4979;51.014;6.678;2023-05-14T15:08:27;24.10;80.70
9881;DHT22;4979;51.014;6.678;2023-05-14T15:10:57;23.90;77.30
9881;DHT22;4979;51.014;6.678;2023-05-14T15:18:17;23.90;78.80
9881;DHT22;4979;51.014;6.678;2023-05-14T15:23:09;23.70;77.20
9881;DHT22;4979;51.014;6.678;2023-05-14T15:25:36;23.60;77.10
9881;DHT22;4979;51.014;6.678;2023-05-14T15:28:04;23.40;77.90
9881;DHT22;4979;51.014;6.678;2023-05-14T15:30:29;23.20;79.70
9881;DHT22;4979;51.014;6.678;2023-05-14T15:35:22;22.90;79.90
9881;DHT22;4979;51.014;6.678;2023-05-14T15:40:14;23.10;82.50
9881;DHT22;4979;51.014;6.678;2023-05-14T15:42:41;23.20;85.00
9881;DHT22;4979;51.014;6.678;2023-05-14T15:45:10;23.20;83.40
9881;DHT22;4979;51.014;6.678;2023-05-14T15:50:08;23.00;83.60
9881;DHT22;4979;51.014;6.678;2023-05-14T15:55:04;22.80;81.50
9881;DHT22;4979;51.014;6.678;2023-05-14T15:59:57;22.70;81.10
9881;DHT22;4979;51.014;6.678;2023-05-14T16:04:48;22.80;84.70
9881;DHT22;4979;51.014;6.678;2023-05-14T16:07:14;22.80;83.30
9881;DHT22;4979;51.014;6.678;2023-05-14T16:09:41;22.80;85.00
9881;DHT22;4979;51.014;6.678;2023-05-14T16:12:08;22.70;85.00
9881;DHT22;4979;51.014;6.678;2023-05-14T16:17:00;22.60;86.00
9881;DHT22;4979;51.014;6.678;2023-05-14T16:24:20;22.30;86.10
9881;DHT22;4979;51.014;6.678;2023-05-14T16:26:46;22.30;86.50
9881;DHT22;4979;51.014;6.678;2023-05-14T16:29:12;22.30;88.20
9881;DHT22;4979;51.014;6.678;2023-05-14T16:31:37;22.50;89.60
9881;DHT22;4979;51.014;6.678;2023-05-14T16:36:29;22.30;88.80
9881;DHT22;4979;51.014;6.678;2023-05-14T16:43:47;21.90;89.20
9881;DHT22;4979;51.014;6.678;2023-05-14T16:46:13;21.90;89.10
9881;DHT22;4979;51.014;6.678;2023-05-14T16:48:39;21.70;90.60
9881;DHT22;4979;51.014;6.678;2023-05-14T16:53:31;21.70;91.40
9881;DHT22;4979;51.014;6.678;2023-05-14T16:58:23;21.60;91.00
9881;DHT22;4979;51.014;6.678;2023-05-14T17:00:48;21.60;91.30
9881;DHT22;4979;51.014;6.678;2023-05-14T17:03:14;21.60;91.50
9881;DHT22;4979;51.014;6.678;2023-05-14T17:08:05;21.50;91.60
9881;DHT22;4979;51.014;6.678;2023-05-14T17:10:31;21.40;91.50
9881;DHT22;4979;51.014;6.678;2023-05-14T17:15:24;21.40;91.50
9881;DHT22;4979;51.014;6.678;2023-05-14T17:17:50;21.50;91.80
9881;DHT22;4979;51.014;6.678;2023-05-14T17:25:08;21.40;91.70
9881;DHT22;4979;51.014;6.678;2023-05-14T17:30:01;21.30;92.30
9881;DHT22;4979;51.014;6.678;2023-05-14T17:32:27;21.20;92.40
9881;DHT22;4979;51.014;6.678;2023-05-14T17:34:54;21.10;92.60
9881;DHT22;4979;51.014;6.678;2023-05-14T17:37:21;21.00;93.30
9881;DHT22;4979;51.014;6.678;2023-05-14T17:39:46;21.10;93.80
9881;DHT22;4979;51.014;6.678;2023-05-14T17:49:31;20.70;98.30
9881;DHT22;4979;51.014;6.678;2023-05-14T17:51:57;20.70;99.90
9881;DHT22;4979;51.014;6.678;2023-05-14T17:54:22;20.60;99.90
9881;DHT22;4979;51.014;6.678;2023-05-14T17:56:48;20.60;99.90
9881;DHT22;4979;51.014;6.678;2023-05-14T17:59:15;20.40;99.90
9881;DHT22;4979;51.014;6.678;2023-05-14T18:01:41;20.30;99.90
9881;DHT22;4979;51.014;6.678;2023-05-14T18:06:33;20.30;99.90
9881;DHT22;4979;51.014;6.678;2023-05-14T18:13:50;20.00;99.90
9881;DHT22;4979;51.014;6.678;2023-05-14T18:21:08;19.90;99.90
9881;DHT22;4979;51.014;6.678;2023-05-14T18:25:59;19.60;99.90
9881;DHT22;4979;51.014;6.678;2023-05-14T18:28:26;19.60;99.90
9881;DHT22;4979;51.014;6.678;2023-05-14T18:33:17;19.50;99.90
9881;DHT22;4979;51.014;6.678;2023-05-14T18:35:43;19.40;99.90
9881;DHT22;4979;51.014;6.678;2023-05-14T18:38:09;19.40;99.90
9881;DHT22;4979;51.014;6.678;2023-05-14T18:40:36;19.20;99.90
9881;DHT22;4979;51.014;6.678;2023-05-14T18:43:01;19.20;99.90
9881;DHT22;4979;51.014;6.678;2023-05-14T18:47:54;19.10;99.90
9881;DHT22;4979;51.014;6.678;2023-05-14T18:52:46;18.90;99.90
9881;DHT22;4979;51.014;6.678;2023-05-14T18:55:11;18.90;99.90
9881;DHT22;4979;51.014;6.678;2023-05-14T18:57:37;18.80;99.90
9881;DHT22;4979;51.014;6.678;2023-05-14T19:02:29;18.70;99.90
9881;DHT22;4979;51.014;6.678;2023-05-14T19:04:55;18.60;99.90
9881;DHT22;4979;51.014;6.678;2023-05-14T19:07:20;18.60;99.90
9881;DHT22;4979;51.014;6.678;2023-05-14T19:09:46;18.50;99.90
9881;DHT22;4979;51.014;6.678;2023-05-14T19:12:12;18.50;99.90
9881;DHT22;4979;51.014;6.678;2023-05-14T19:24:21;18.20;99.90
9881;DHT22;4979;51.014;6.678;2023-05-14T19:26:47;18.20;99.90
9881;DHT22;4979;51.014;6.678;2023-05-14T19:29:12;18.20;99.90
9881;DHT22;4979;51.014;6.678;2023-05-14T19:31:38;18.20;99.90
9881;DHT22;4979;51.014;6.678;2023-05-14T19:38:57;18.20;99.90
9881;DHT22;4979;51.014;6.678;2023-05-14T19:46:14;18.10;99.90
9881;DHT22;4979;51.014;6.678;2023-05-14T19:48:40;18.10;99.90
9881;DHT22;4979;51.014;6.678;2023-05-14T19:51:06;18.10;99.90
9881;DHT22;4979;51.014;6.678;2023-05-14T19:55:58;18.00;99.90
9881;DHT22;4979;51.014;6.678;2023-05-14T20:00:51;18.10;99.90
9881;DHT22;4979;51.014;6.678;2023-05-14T20:03:21;18.10;99.90
9881;DHT22;4979;51.014;6.678;2023-05-14T20:10:44;18.00;99.90
9881;DHT22;4979;51.014;6.678;2023-05-14T20:13:09;18.10;99.90
9881;DHT22;4979;51.014;6.678;2023-05-14T20:15:35;18.00;99.90
9881;DHT22;4979;51.014;6.678;2023-05-14T20:18:01;18.10;99.90
9881;DHT22;4979;51.014;6.678;2023-05-14T20:22:53;18.10;99.90
9881;DHT22;4979;51.014;6.678;2023-05-14T20:27:46;18.00;99.90
9881;DHT22;4979;51.014;6.678;2023-05-14T20:30:11;17.90;99.90
9881;DHT22;4979;51.014;6.678;2023-05-14T20:35:03;18.00;99.90
9881;DHT22;4979;51.014;6.678;2023-05-14T20:39:56;18.00;99.90
9881;DHT22;4979;51.014;6.678;2023-05-14T20:44:49;18.00;99.90
9881;DHT22;4979;51.014;6.678;2023-05-14T20:47:15;18.00;99.90
9881;DHT22;4979;51.014;6.678;2023-05-14T20:49:45;17.90;99.90
9881;DHT22;4979;51.014;6.678;2023-05-14T20:52:11;17.90;99.90
9881;DHT22;4979;51.014;6.678;2023-05-14T20:54:37;17.90;99.90
9881;DHT22;4979;51.014;6.678;2023-05-14T20:57:03;17.80;99.90
9881;DHT22;4979;51.014;6.678;2023-05-14T21:01:54;17.70;99.90
9881;DHT22;4979;51.014;6.678;2023-05-14T21:04:20;17.60;99.90
9881;DHT22;4979;51.014;6.678;2023-05-14T21:06:45;17.60;99.90
9881;DHT22;4979;51.014;6.678;2023-05-14T21:09:11;17.60;99.90
9881;DHT22;4979;51.014;6.678;2023-05-14T21:11:37;17.60;99.90
9881;DHT22;4979;51.014;6.678;2023-05-14T21:16:29;17.60;99.90
9881;DHT22;4979;51.014;6.678;2023-05-14T21:21:21;17.40;99.90
9881;DHT22;4979;51.014;6.678;2023-05-14T21:23:47;17.40;99.90
9881;DHT22;4979;51.014;6.678;2023-05-14T21:26:13;17.30;99.90
9881;DHT22;4979;51.014;6.678;2023-05-14T21:33:30;17.10;99.90
9881;DHT22;4979;51.014;6.678;2023-05-14T21:35:56;17.00;99.90
9881;DHT22;4979;51.014;6.678;2023-05-14T21:38:21;17.00;99.90
9881;DHT22;4979;51.014;6.678;2023-05-14T21:43:13;16.90;99.90